createdAt,value
2023-01-22T00:01:20.342Z,14.93
2023-01-22T00:03:49.330Z,15.45
2023-01-22T00:06:18.923Z,14.75
2023-01-22T00:08:48.860Z,15.35
2023-01-22T00:11:17.997Z,15.13
2023-01-22T00:13:45.236Z,14.15
2023-01-22T00:16:17.744Z,16.02
2023-01-22T00:18:45.290Z,15.07
2023-01-22T00:21:13.408Z,16.17
2023-01-22T00:23:41.298Z,14.80
2023-01-22T00:26:15.713Z,14.45
2023-01-22T00:28:46.435Z,14.60
2023-01-22T00:31:17.298Z,15.77
2023-01-22T00:33:48.288Z,13.75
2023-01-22T00:36:20.039Z,14.27
2023-01-22T00:38:49.529Z,15.52
2023-01-22T00:41:18.849Z,14.23
2023-01-22T00:43:46.497Z,13.23
2023-01-22T00:46:16.934Z,12.95
2023-01-22T00:48:49.905Z,14.02
2023-01-22T00:51:17.865Z,12.73
2023-01-22T00:53:45.446Z,15.57
2023-01-22T00:56:14.181Z,13.02
2023-01-22T00:58:41.618Z,12.68
2023-01-22T01:01:08.969Z,12.93
2023-01-22T01:03:38.271Z,11.73
2023-01-22T01:06:16.880Z,12.30
2023-01-22T01:08:46.638Z,12.35
2023-01-22T01:11:19.035Z,12.00
2023-01-22T01:13:46.189Z,11.40
2023-01-22T01:16:21.439Z,11.73
2023-01-22T01:18:48.743Z,12.90
2023-01-22T01:21:17.362Z,13.20
2023-01-22T01:23:44.401Z,13.00
2023-01-22T01:26:14.764Z,10.73
2023-01-22T01:28:44.001Z,12.10
2023-01-22T01:31:15.116Z,11.55
2023-01-22T01:33:44.004Z,11.80
2023-01-22T01:36:15.491Z,10.88
2023-01-22T01:38:44.069Z,11.75
2023-01-22T01:41:17.127Z,11.80
2023-01-22T01:43:44.580Z,12.32
2023-01-22T01:46:22.270Z,11.20
2023-01-22T01:48:55.425Z,11.38
2023-01-22T01:51:29.274Z,10.48
2023-01-22T01:53:57.643Z,11.07
2023-01-22T01:56:30.774Z,11.45
2023-01-22T01:59:07.808Z,11.25
2023-01-22T02:01:34.999Z,10.25
2023-01-22T02:04:02.271Z,10.30
2023-01-22T02:06:29.738Z,10.43
2023-01-22T02:08:57.876Z,10.50
2023-01-22T02:11:25.480Z,9.82
2023-01-22T02:14:09.806Z,11.15
2023-01-22T02:16:38.042Z,9.85
2023-01-22T02:19:05.271Z,10.60
2023-01-22T02:21:42.645Z,9.70
2023-01-22T02:24:16.435Z,10.40
2023-01-22T02:26:45.825Z,9.82
2023-01-22T02:29:17.355Z,10.07
2023-01-22T02:31:44.526Z,11.18
2023-01-22T02:34:11.680Z,10.50
2023-01-22T02:36:40.608Z,10.05
2023-01-22T02:39:07.961Z,9.07
2023-01-22T02:41:34.993Z,10.57
2023-01-22T02:44:02.771Z,9.70
2023-01-22T02:46:30.440Z,9.75
2023-01-22T02:48:57.460Z,10.35
2023-01-22T02:51:26.681Z,10.70
2023-01-22T02:53:54.761Z,9.90
2023-01-22T02:56:22.761Z,9.25
2023-01-22T02:58:50.832Z,10.13
2023-01-22T03:01:23.981Z,10.00
2023-01-22T03:03:58.728Z,9.50
2023-01-22T03:06:29.682Z,9.60
2023-01-22T03:09:01.206Z,10.00
2023-01-22T03:11:31.595Z,9.55
2023-01-22T03:14:24.607Z,9.13
2023-01-22T03:17:12.872Z,9.95
2023-01-22T03:19:58.805Z,9.80
2023-01-22T03:22:26.440Z,9.82
2023-01-22T03:24:53.704Z,9.43
2023-01-22T03:27:26.569Z,10.45
2023-01-22T03:29:54.441Z,9.57
2023-01-22T03:32:22.414Z,10.30
2023-01-22T03:34:49.672Z,11.75
2023-01-22T03:37:16.913Z,10.15
2023-01-22T03:39:46.645Z,10.52
2023-01-22T03:42:25.495Z,11.30
2023-01-22T03:44:52.504Z,11.07
2023-01-22T03:47:19.676Z,10.60
2023-01-22T03:49:46.678Z,10.43
2023-01-22T03:52:13.887Z,10.40
2023-01-22T03:54:41.063Z,11.05
2023-01-22T03:57:10.009Z,10.80
2023-01-22T03:59:39.567Z,11.07
2023-01-22T04:02:07.609Z,9.73
2023-01-22T04:04:44.883Z,9.40
2023-01-22T04:07:12.669Z,10.95
2023-01-22T04:09:40.158Z,9.93
2023-01-22T04:12:07.546Z,10.52
2023-01-22T04:14:35.306Z,10.10
2023-01-22T04:17:03.669Z,11.57
2023-01-22T04:19:41.106Z,10.88
2023-01-22T04:22:26.522Z,10.68
2023-01-22T04:24:53.896Z,10.70
2023-01-22T04:27:21.082Z,9.85
2023-01-22T04:29:50.876Z,11.07
2023-01-22T04:32:20.588Z,11.70
2023-01-22T04:34:50.487Z,10.85
2023-01-22T04:37:21.956Z,11.40
2023-01-22T04:39:49.114Z,11.15
2023-01-22T04:42:16.270Z,9.45
2023-01-22T04:44:43.338Z,11.27
2023-01-22T04:47:10.926Z,11.00
2023-01-22T04:49:40.270Z,11.00
2023-01-22T04:52:10.647Z,12.02
2023-01-22T04:54:37.954Z,10.98
2023-01-22T04:57:05.943Z,10.98
2023-01-22T04:59:33.055Z,11.65
2023-01-22T05:02:02.996Z,10.85
2023-01-22T05:04:32.681Z,9.75
2023-01-22T05:06:59.698Z,11.52
2023-01-22T05:09:26.924Z,10.20
2023-01-22T05:11:58.347Z,12.13
2023-01-22T05:14:27.135Z,11.73
2023-01-22T05:16:55.317Z,10.40
2023-01-22T05:19:22.561Z,9.82
2023-01-22T05:21:49.815Z,10.80
2023-01-22T05:24:18.647Z,11.50
2023-01-22T05:26:46.618Z,11.02
2023-01-22T05:29:18.425Z,10.75
2023-01-22T05:32:05.963Z,10.27
2023-01-22T05:34:36.497Z,10.18
2023-01-22T05:37:07.309Z,9.70
2023-01-22T05:39:35.588Z,10.63
2023-01-22T05:42:05.243Z,10.10
2023-01-22T05:44:33.683Z,10.95
2023-01-22T05:47:02.038Z,10.07
2023-01-22T05:49:41.268Z,9.45
2023-01-22T05:52:11.116Z,10.48
2023-01-22T05:54:39.867Z,10.98
2023-01-22T05:57:08.156Z,9.75
2023-01-22T05:59:37.878Z,9.45
2023-01-22T06:02:06.963Z,9.10
2023-01-22T06:04:38.370Z,9.65
2023-01-22T06:07:15.562Z,10.10
2023-01-22T06:09:42.563Z,8.52
2023-01-22T06:12:09.645Z,10.18
2023-01-22T06:14:36.664Z,9.50
2023-01-22T06:17:04.653Z,9.02
2023-01-22T06:19:47.123Z,10.40
2023-01-22T06:22:16.234Z,8.52
2023-01-22T06:24:54.636Z,8.23
2023-01-22T06:27:24.599Z,8.10
2023-01-22T06:29:56.405Z,8.32
2023-01-22T06:32:23.735Z,8.57
2023-01-22T06:34:52.445Z,8.07
2023-01-22T06:37:23.998Z,8.10
2023-01-22T06:39:54.299Z,7.63
2023-01-22T06:42:31.908Z,7.85
2023-01-22T06:44:59.504Z,7.57
2023-01-22T06:47:37.227Z,7.97
2023-01-22T06:50:09.140Z,8.00
2023-01-22T06:52:39.001Z,9.25
2023-01-22T06:55:07.949Z,7.15
2023-01-22T06:57:38.561Z,6.28
2023-01-22T07:00:07.129Z,6.40
2023-01-22T07:02:34.646Z,7.78
2023-01-22T07:05:03.255Z,6.75
2023-01-22T07:07:31.387Z,6.82
2023-01-22T07:09:58.573Z,7.32
2023-01-22T07:12:25.640Z,7.30
2023-01-22T07:14:53.979Z,7.32
2023-01-22T07:17:21.660Z,6.80
2023-01-22T07:19:49.680Z,7.53
2023-01-22T07:22:18.457Z,7.18
2023-01-22T07:24:47.164Z,7.25
2023-01-22T07:27:15.425Z,7.43
2023-01-22T07:29:45.886Z,8.07
2023-01-22T07:32:14.833Z,7.53
2023-01-22T07:34:45.618Z,7.63
2023-01-22T07:37:20.318Z,7.03
2023-01-22T07:39:51.665Z,6.80
2023-01-22T07:42:21.324Z,7.60
2023-01-22T07:44:51.508Z,7.55
2023-01-22T07:47:26.673Z,7.03
2023-01-22T07:49:54.207Z,7.60
2023-01-22T07:52:21.512Z,6.55
2023-01-22T07:54:48.522Z,8.27
2023-01-22T07:57:16.799Z,7.22
2023-01-22T07:59:45.580Z,6.70
2023-01-22T08:02:16.953Z,6.53
2023-01-22T08:04:46.488Z,6.40
2023-01-22T08:07:17.536Z,7.32
2023-01-22T08:09:44.809Z,5.95
2023-01-22T08:12:12.116Z,7.82
2023-01-22T08:14:40.853Z,6.95
2023-01-22T08:17:10.696Z,6.88
2023-01-22T08:19:37.800Z,6.18
2023-01-22T08:22:05.991Z,6.63
2023-01-22T08:24:36.752Z,7.50
2023-01-22T08:27:04.179Z,6.32
2023-01-22T08:29:35.893Z,6.93
2023-01-22T08:32:08.253Z,7.05
2023-01-22T08:34:35.736Z,6.85
2023-01-22T08:37:03.196Z,8.32
2023-01-22T08:39:30.302Z,6.32
2023-01-22T08:41:57.794Z,6.70
2023-01-22T08:44:25.533Z,5.50
2023-01-22T08:46:54.211Z,6.90
2023-01-22T08:49:24.388Z,5.88
2023-01-22T08:51:56.135Z,6.38
2023-01-22T08:54:23.456Z,5.93
2023-01-22T08:56:54.901Z,6.30
2023-01-22T08:59:32.934Z,6.38
2023-01-22T09:02:01.876Z,5.95
2023-01-22T09:04:31.767Z,6.40
2023-01-22T09:06:58.791Z,6.38
2023-01-22T09:09:25.992Z,7.05
2023-01-22T09:11:53.098Z,6.82
2023-01-22T09:14:20.332Z,6.72
2023-01-22T09:16:47.424Z,5.90
2023-01-22T09:19:14.816Z,5.25
2023-01-22T09:21:42.005Z,6.00
2023-01-22T09:24:09.296Z,6.97
2023-01-22T09:26:37.252Z,6.10
2023-01-22T09:29:05.916Z,5.85
2023-01-22T09:31:37.110Z,6.53
2023-01-22T09:34:05.119Z,7.05
2023-01-22T09:36:32.352Z,6.28
2023-01-22T09:38:59.361Z,6.78
2023-01-22T09:41:44.173Z,5.80
2023-01-22T09:44:22.390Z,6.40
2023-01-22T09:46:56.378Z,5.80
2023-01-22T09:49:34.666Z,6.35
2023-01-22T09:52:05.346Z,6.55
2023-01-22T09:54:33.908Z,6.15
2023-01-22T09:57:04.980Z,6.25
2023-01-22T09:59:52.438Z,5.85
2023-01-22T10:02:36.587Z,6.30
2023-01-22T10:05:42.941Z,5.70
2023-01-22T10:08:50.574Z,6.47
2023-01-22T10:11:17.763Z,5.95
2023-01-22T10:13:45.264Z,6.07
2023-01-22T10:16:12.888Z,6.57
2023-01-22T10:18:48.952Z,6.30
2023-01-22T10:21:28.973Z,6.13
2023-01-22T10:23:58.334Z,6.55
2023-01-22T10:26:39.255Z,5.88
2023-01-22T10:29:31.935Z,6.15
2023-01-22T10:32:19.224Z,5.95
2023-01-22T10:35:11.510Z,6.70
2023-01-22T10:37:48.407Z,6.25
2023-01-22T10:40:25.023Z,6.32
2023-01-22T10:43:09.346Z,5.22
2023-01-22T10:45:36.468Z,6.00
2023-01-22T10:48:22.762Z,6.97
2023-01-22T10:53:58.222Z,5.97
2023-01-22T10:56:36.846Z,6.13
2023-01-22T10:59:19.452Z,5.68
2023-01-22T11:01:53.609Z,6.90
2023-01-22T11:04:25.335Z,6.78
2023-01-22T11:07:02.639Z,6.60
2023-01-22T11:10:03.804Z,6.05
2023-01-22T11:12:38.403Z,6.07
2023-01-22T11:15:17.962Z,5.90
2023-01-22T11:17:51.750Z,6.45
2023-01-22T11:20:42.068Z,7.25
2023-01-22T11:23:24.732Z,6.30
2023-01-22T11:26:15.714Z,6.43
2023-01-22T11:29:42.242Z,6.63
2023-01-22T11:32:45.096Z,7.05
2023-01-22T11:35:24.702Z,6.72
2023-01-22T11:38:36.691Z,6.13
2023-01-22T11:41:16.473Z,6.40
2023-01-22T11:43:59.102Z,6.63
2023-01-22T11:47:11.715Z,7.25
2023-01-22T11:49:58.419Z,6.63
2023-01-22T11:52:53.719Z,7.53
2023-01-22T11:56:01.188Z,6.82
2023-01-22T11:58:51.689Z,6.80
2023-01-22T12:01:43.739Z,6.75
2023-01-22T12:04:25.281Z,7.25
2023-01-22T12:07:23.784Z,7.10
2023-01-22T12:10:08.711Z,6.55
2023-01-22T12:12:47.278Z,5.85
2023-01-22T12:15:40.786Z,7.75
2023-01-22T12:18:29.262Z,7.30
2023-01-22T12:21:49.652Z,7.68
2023-01-22T12:24:40.378Z,6.63
2023-01-22T12:27:23.524Z,6.35
2023-01-22T12:30:02.647Z,7.35
2023-01-22T12:32:32.066Z,7.25
2023-01-22T12:35:07.246Z,7.05
2023-01-22T12:38:12.412Z,8.48
2023-01-22T12:41:21.569Z,6.63
2023-01-22T12:43:58.911Z,8.05
2023-01-22T12:47:04.753Z,7.60
2023-01-22T12:49:31.699Z,7.57
2023-01-22T12:52:01.319Z,5.63
2023-01-22T12:54:36.393Z,8.50
2023-01-22T12:57:23.096Z,8.05
2023-01-22T12:59:53.399Z,7.20
2023-01-22T13:02:26.772Z,7.50
2023-01-22T13:04:55.472Z,7.50
2023-01-22T13:07:25.043Z,7.80
2023-01-22T13:10:06.855Z,7.55
2023-01-22T13:12:47.967Z,8.90
2023-01-22T13:15:32.599Z,8.38
2023-01-22T13:18:07.632Z,7.45
2023-01-22T13:20:48.005Z,7.63
2023-01-22T13:23:16.006Z,7.82
2023-01-22T13:25:44.357Z,7.43
2023-01-22T13:28:17.426Z,8.05
2023-01-22T13:30:59.386Z,8.80
2023-01-22T13:33:26.780Z,8.48
2023-01-22T13:35:54.862Z,9.20
2023-01-22T13:38:29.903Z,9.05
2023-01-22T13:40:58.954Z,8.07
2023-01-22T13:43:27.348Z,9.25
2023-01-22T13:45:56.857Z,8.20
2023-01-22T13:48:26.691Z,8.45
2023-01-22T13:50:56.838Z,7.57
2023-01-22T13:53:41.087Z,9.70
2023-01-22T13:56:20.403Z,9.15
2023-01-22T13:58:49.294Z,8.57
2023-01-22T14:01:33.690Z,8.73
2023-01-22T14:04:07.690Z,8.90
2023-01-22T14:06:49.595Z,8.30
2023-01-22T14:09:46.363Z,8.43
2023-01-22T14:12:19.619Z,8.23
2023-01-22T14:14:47.347Z,8.63
2023-01-22T14:17:34.337Z,8.07
2023-01-22T14:20:03.316Z,7.40
2023-01-22T14:22:32.127Z,7.50
2023-01-22T14:24:59.175Z,9.15
2023-01-22T14:27:45.286Z,10.18
2023-01-22T14:30:17.531Z,10.05
2023-01-22T14:32:48.493Z,8.75
2023-01-22T14:35:18.970Z,9.20
2023-01-22T14:37:47.250Z,8.95
2023-01-22T14:40:17.670Z,7.90
2023-01-22T14:42:45.345Z,8.43
2023-01-22T14:45:15.721Z,7.90
2023-01-22T14:47:44.203Z,8.68
2023-01-22T14:50:11.995Z,8.80
2023-01-22T14:52:40.277Z,8.95
2023-01-22T14:55:07.759Z,8.35
2023-01-22T14:57:36.111Z,9.13
2023-01-22T15:00:11.586Z,8.38
2023-01-22T15:02:40.273Z,9.45
2023-01-22T15:05:08.445Z,8.13
2023-01-22T15:07:37.156Z,9.52
2023-01-22T15:10:08.832Z,8.10
2023-01-22T15:12:37.338Z,8.85
2023-01-22T15:15:05.422Z,8.73
2023-01-22T15:17:32.679Z,9.15
2023-01-22T15:19:59.839Z,10.23
2023-01-22T15:22:26.922Z,9.70
2023-01-22T15:24:53.890Z,8.98
2023-01-22T15:27:20.839Z,9.35
2023-01-22T15:29:48.192Z,9.25
2023-01-22T15:35:04.263Z,8.85
2023-01-22T15:37:34.965Z,9.90
2023-01-22T15:40:05.718Z,9.07
2023-01-22T15:42:37.971Z,9.60
2023-01-22T15:45:11.566Z,9.35
2023-01-22T15:47:40.164Z,9.07
2023-01-22T15:50:15.084Z,10.32
2023-01-22T15:52:57.315Z,11.53
2023-01-22T15:55:28.311Z,8.60
2023-01-22T15:58:01.285Z,11.32
2023-01-22T16:00:31.815Z,10.05
2023-01-22T16:03:00.191Z,9.77
2023-01-22T16:05:29.479Z,10.70
2023-01-22T16:07:59.650Z,10.30
2023-01-22T16:10:27.059Z,10.23
2023-01-22T16:12:54.050Z,10.57
2023-01-22T16:15:22.630Z,10.65
2023-01-22T16:17:49.696Z,11.25
2023-01-22T16:20:19.703Z,10.55
2023-01-22T16:22:47.204Z,11.10
2023-01-22T16:25:15.623Z,10.45
2023-01-22T16:27:42.757Z,11.15
2023-01-22T16:30:12.654Z,12.82
2023-01-22T16:32:44.344Z,10.48
2023-01-22T16:35:12.754Z,9.90
2023-01-22T16:37:47.732Z,11.25
2023-01-22T16:40:15.127Z,11.70
2023-01-22T16:43:01.679Z,12.63
2023-01-22T16:45:28.620Z,11.32
2023-01-22T16:47:58.783Z,11.15
2023-01-22T16:50:27.204Z,11.52
2023-01-22T16:56:03.613Z,11.63
2023-01-22T16:58:41.482Z,11.25
2023-01-22T17:01:23.364Z,10.95
2023-01-22T17:03:54.742Z,11.48
2023-01-22T17:07:15.381Z,12.85
2023-01-22T17:09:52.229Z,11.90
2023-01-22T17:12:20.787Z,12.68
2023-01-22T17:14:53.131Z,10.75
2023-01-22T17:17:20.369Z,11.55
2023-01-22T17:19:48.717Z,10.50
2023-01-22T17:22:16.284Z,10.88
2023-01-22T17:24:43.483Z,10.43
2023-01-22T17:27:18.505Z,10.85
2023-01-22T17:29:51.099Z,10.93
2023-01-22T17:32:24.625Z,11.95
2023-01-22T17:34:55.168Z,11.35
2023-01-22T17:37:48.176Z,12.13
2023-01-22T17:41:21.630Z,11.52
2023-01-22T17:43:59.753Z,11.02
2023-01-22T17:46:38.554Z,11.18
2023-01-22T17:49:12.090Z,10.55
2023-01-22T19:18:43.563Z,10.73
2023-01-22T19:22:15.302Z,10.02
2023-01-22T20:08:09.959Z,9.35
2023-01-22T20:10:51.399Z,9.50
2023-01-22T20:28:49.548Z,9.57
2023-01-22T20:31:33.343Z,9.05
2023-01-22T20:34:10.279Z,11.13
2023-01-22T20:36:57.650Z,9.07
2023-01-22T20:40:07.015Z,9.52
2023-01-22T20:45:44.737Z,8.65
2023-01-22T20:48:35.099Z,9.32
2023-01-22T20:51:28.439Z,9.07
2023-01-22T20:54:17.563Z,9.57
2023-01-22T20:56:53.819Z,8.10
2023-01-22T21:02:43.606Z,8.50
2023-01-22T21:05:21.018Z,8.85
2023-01-22T21:08:03.791Z,8.82
2023-01-22T21:11:15.567Z,9.10
2023-01-22T21:14:18.996Z,9.57
2023-01-22T21:16:54.329Z,10.02
2023-01-22T21:22:23.536Z,9.73
2023-01-22T21:25:07.505Z,8.88
2023-01-22T21:30:51.952Z,10.18
2023-01-22T21:33:49.574Z,9.15
2023-01-22T21:40:09.880Z,9.68
2023-01-22T21:42:57.311Z,9.82
2023-01-22T21:51:44.261Z,10.18
2023-01-22T21:54:38.383Z,10.15
2023-01-22T21:57:32.228Z,10.38
2023-01-22T22:00:01.174Z,9.10
2023-01-22T22:02:44.133Z,10.07
2023-01-22T22:05:24.165Z,10.05
2023-01-22T22:08:03.019Z,9.30
2023-01-22T22:10:38.871Z,10.55
2023-01-22T22:13:23.673Z,9.20
2023-01-22T22:15:54.264Z,9.38
2023-01-22T22:18:35.947Z,11.05
2023-01-22T22:21:15.000Z,11.48
2023-01-22T22:23:47.300Z,10.15
2023-01-22T22:26:22.702Z,10.55
2023-01-22T22:28:56.871Z,10.43
2023-01-22T22:31:30.459Z,9.55
2023-01-22T22:34:16.556Z,9.48
2023-01-22T22:36:49.254Z,9.50
2023-01-22T22:42:50.380Z,9.23
2023-01-22T22:52:01.186Z,8.70
2023-01-22T22:54:34.786Z,8.23
2023-01-22T22:57:29.113Z,8.77
2023-01-22T23:02:59.936Z,11.68
2023-01-22T23:05:34.545Z,9.60
2023-01-22T23:08:10.029Z,9.60
2023-01-22T23:10:55.283Z,9.60
2023-01-22T23:17:17.957Z,8.60
2023-01-22T23:19:52.294Z,10.05
2023-01-22T23:39:22.214Z,9.27
2023-01-22T23:49:22.063Z,9.20
2023-01-22T23:51:49.600Z,8.35
2023-01-22T23:55:11.898Z,9.38
2023-01-22T23:57:47.856Z,9.35
